createdAt,value
2022-12-15T00:00:14.861Z,49.34
2022-12-15T00:03:26.276Z,49.89
2022-12-15T00:06:13.548Z,51.07
2022-12-15T00:09:00.447Z,54.32
2022-12-15T00:11:47.607Z,64.64
2022-12-15T00:14:35.042Z,63.99
2022-12-15T00:17:22.108Z,60.33
2022-12-15T00:20:09.173Z,57.60
2022-12-15T00:22:56.335Z,54.33
2022-12-15T00:25:43.089Z,49.71
2022-12-15T00:28:30.100Z,48.08
2022-12-15T00:31:18.450Z,47.53
2022-12-15T00:34:05.667Z,46.88
2022-12-15T00:36:52.473Z,46.44
2022-12-15T00:39:21.198Z,45.84
2022-12-15T00:41:49.539Z,45.56
2022-12-15T00:44:20.740Z,47.71
2022-12-15T00:46:55.449Z,47.61
2022-12-15T00:49:45.528Z,46.83
2022-12-15T00:52:34.487Z,46.08
2022-12-15T00:55:23.419Z,43.98
2022-12-15T00:58:12.309Z,41.78
2022-12-15T01:00:59.733Z,40.80
2022-12-15T01:03:47.244Z,40.50
2022-12-15T01:06:38.123Z,40.27
2022-12-15T01:09:33.299Z,40.69
2022-12-15T01:12:20.134Z,41.51
2022-12-15T01:15:07.425Z,41.91
2022-12-15T01:17:54.428Z,42.09
2022-12-15T01:20:23.007Z,42.32
2022-12-15T01:22:55.999Z,42.61
2022-12-15T01:25:25.727Z,42.95
2022-12-15T01:27:54.001Z,43.23
2022-12-15T01:30:25.670Z,43.48
2022-12-15T01:32:54.358Z,43.73
2022-12-15T01:35:22.975Z,43.94
2022-12-15T01:37:51.528Z,44.28
2022-12-15T01:40:40.274Z,44.39
2022-12-15T01:43:24.725Z,43.95
2022-12-15T01:46:06.274Z,43.79
2022-12-15T01:48:38.307Z,43.75
2022-12-15T01:51:16.185Z,43.78
2022-12-15T01:53:53.997Z,44.39
2022-12-15T01:56:24.021Z,45.47
2022-12-15T01:58:55.404Z,44.91
2022-12-15T02:01:24.019Z,44.49
2022-12-15T02:03:52.467Z,43.70
2022-12-15T02:06:22.476Z,43.01
2022-12-15T02:08:54.880Z,42.52
2022-12-15T02:11:33.223Z,42.53
2022-12-15T02:14:05.787Z,44.99
2022-12-15T02:17:02.153Z,43.25
2022-12-15T02:19:36.672Z,42.51
2022-12-15T02:22:22.336Z,41.28
2022-12-15T02:25:12.449Z,41.39
2022-12-15T02:28:04.170Z,38.95
2022-12-15T02:30:38.568Z,40.39
2022-12-15T02:33:08.923Z,40.30
2022-12-15T02:36:08.818Z,37.18
2022-12-15T02:38:39.372Z,33.06
2022-12-15T02:41:35.872Z,33.77
2022-12-15T02:44:20.851Z,34.09
2022-12-15T02:46:55.987Z,35.48
2022-12-15T02:50:01.353Z,37.08
2022-12-15T02:52:55.635Z,37.39
2022-12-15T02:56:00.799Z,38.67
2022-12-15T02:58:45.124Z,39.35
2022-12-15T03:01:33.676Z,41.00
2022-12-15T03:04:04.636Z,41.86
2022-12-15T03:06:32.962Z,43.23
2022-12-15T03:09:01.404Z,44.38
2022-12-15T03:11:30.699Z,45.18
2022-12-15T03:13:59.162Z,45.88
2022-12-15T03:16:27.561Z,46.68
2022-12-15T03:18:56.014Z,50.59
2022-12-15T03:21:24.199Z,58.54
2022-12-15T03:23:52.581Z,58.45
2022-12-15T03:26:21.222Z,56.42
2022-12-15T03:28:49.472Z,53.35
2022-12-15T03:31:17.917Z,49.87
2022-12-15T03:33:46.866Z,45.46
2022-12-15T03:36:15.117Z,44.49
2022-12-15T03:38:43.414Z,44.24
2022-12-15T03:41:12.194Z,43.00
2022-12-15T03:43:40.423Z,42.72
2022-12-15T03:46:08.786Z,43.28
2022-12-15T03:48:37.957Z,42.99
2022-12-15T03:51:06.564Z,42.78
2022-12-15T03:53:34.911Z,42.21
2022-12-15T03:56:03.413Z,41.76
2022-12-15T03:58:31.692Z,42.06
2022-12-15T04:01:09.278Z,41.51
2022-12-15T04:03:38.069Z,41.55
2022-12-15T04:06:06.581Z,41.83
2022-12-15T04:08:34.872Z,42.15
2022-12-15T04:11:03.184Z,42.45
2022-12-15T04:13:31.733Z,42.87
2022-12-15T04:16:02.928Z,43.26
2022-12-15T04:18:31.343Z,43.50
2022-12-15T04:20:59.563Z,43.73
2022-12-15T04:23:28.384Z,44.00
2022-12-15T04:26:15.507Z,44.13
2022-12-15T04:29:02.464Z,44.15
2022-12-15T04:31:52.319Z,44.21
2022-12-15T04:34:42.284Z,44.23
2022-12-15T04:37:32.641Z,44.44
2022-12-15T04:40:19.678Z,44.54
2022-12-15T04:43:07.295Z,44.51
2022-12-15T04:45:54.319Z,44.71
2022-12-15T04:48:41.347Z,44.66
2022-12-15T04:51:28.069Z,44.53
2022-12-15T04:54:15.168Z,44.20
2022-12-15T04:57:02.081Z,43.89
2022-12-15T04:59:49.159Z,43.79
2022-12-15T05:02:36.404Z,43.79
2022-12-15T05:05:23.887Z,43.74
2022-12-15T05:08:10.844Z,43.72
2022-12-15T05:10:57.918Z,44.12
2022-12-15T05:13:44.748Z,43.98
2022-12-15T05:16:31.708Z,43.85
2022-12-15T05:19:18.526Z,43.64
2022-12-15T05:22:05.549Z,43.58
2022-12-15T05:24:52.739Z,43.62
2022-12-15T05:27:39.924Z,43.40
2022-12-15T05:30:27.916Z,43.04
2022-12-15T05:32:56.240Z,42.91
2022-12-15T05:35:24.870Z,42.86
2022-12-15T05:37:53.727Z,42.85
2022-12-15T05:40:22.021Z,42.91
2022-12-15T05:42:50.495Z,42.98
2022-12-15T05:45:18.696Z,42.88
2022-12-15T05:47:51.631Z,42.79
2022-12-15T05:50:21.097Z,42.64
2022-12-15T05:52:49.939Z,42.57
2022-12-15T05:55:19.043Z,42.36
2022-12-15T05:57:54.417Z,42.28
2022-12-15T06:00:23.133Z,42.34
2022-12-15T06:02:51.414Z,42.26
2022-12-15T06:05:19.677Z,42.31
2022-12-15T06:07:47.929Z,42.21
2022-12-15T06:10:16.235Z,42.11
2022-12-15T06:12:44.455Z,42.06
2022-12-15T06:15:13.022Z,42.16
2022-12-15T06:17:41.253Z,42.19
2022-12-15T06:20:09.976Z,42.10
2022-12-15T06:22:38.976Z,42.09
2022-12-15T06:25:07.655Z,42.10
2022-12-15T06:27:37.850Z,42.06
2022-12-15T06:30:06.529Z,41.91
2022-12-15T06:32:36.389Z,42.06
2022-12-15T06:35:05.044Z,42.10
2022-12-15T06:37:33.308Z,42.14
2022-12-15T06:40:02.242Z,41.90
2022-12-15T06:42:30.595Z,41.96
2022-12-15T06:44:58.944Z,41.93
2022-12-15T06:47:27.203Z,41.91
2022-12-15T06:49:56.056Z,42.03
2022-12-15T06:52:24.243Z,42.03
2022-12-15T06:54:52.537Z,42.14
2022-12-15T06:57:20.997Z,42.18
2022-12-15T06:59:49.221Z,42.32
2022-12-15T07:02:22.341Z,42.28
2022-12-15T07:04:53.647Z,42.27
2022-12-15T07:07:21.979Z,42.18
2022-12-15T07:09:50.271Z,42.18
2022-12-15T07:12:18.837Z,42.12
2022-12-15T07:14:53.053Z,42.10
2022-12-15T07:17:22.183Z,42.04
2022-12-15T07:19:50.678Z,42.08
2022-12-15T07:22:20.433Z,41.97
2022-12-15T07:24:48.775Z,41.77
2022-12-15T07:27:18.234Z,41.59
2022-12-15T07:29:46.470Z,41.50
2022-12-15T07:32:15.904Z,41.57
2022-12-15T07:34:44.705Z,41.55
2022-12-15T07:37:13.366Z,41.46
2022-12-15T07:39:41.984Z,41.35
2022-12-15T07:42:10.381Z,41.32
2022-12-15T07:44:38.838Z,41.24
2022-12-15T07:47:07.266Z,41.04
2022-12-15T07:49:35.476Z,41.01
2022-12-15T07:52:04.439Z,40.92
2022-12-15T07:54:32.863Z,40.96
2022-12-15T07:57:02.791Z,40.96
2022-12-15T07:59:31.039Z,40.96
2022-12-15T08:02:00.800Z,41.00
2022-12-15T08:04:29.157Z,41.15
2022-12-15T08:06:58.599Z,41.29
2022-12-15T08:09:26.877Z,41.45
2022-12-15T08:11:55.194Z,41.58
2022-12-15T08:14:24.281Z,41.67
2022-12-15T08:16:53.641Z,41.78
2022-12-15T08:19:21.939Z,41.89
2022-12-15T08:21:50.856Z,42.11
2022-12-15T08:24:19.552Z,42.37
2022-12-15T08:26:50.503Z,42.55
2022-12-15T08:32:07.741Z,42.48
2022-12-15T08:34:36.285Z,42.58
2022-12-15T08:37:04.521Z,42.67
2022-12-15T08:39:32.781Z,42.78
2022-12-15T08:42:01.081Z,42.82
2022-12-15T08:44:29.324Z,42.84
2022-12-15T08:46:57.560Z,42.74
2022-12-15T08:49:25.927Z,42.52
2022-12-15T08:51:54.200Z,42.54
2022-12-15T08:54:22.607Z,42.19
2022-12-15T08:56:50.976Z,42.05
2022-12-15T08:59:19.549Z,41.86
2022-12-15T09:01:48.473Z,41.81
2022-12-15T09:04:17.316Z,41.91
2022-12-15T09:06:46.767Z,41.93
2022-12-15T09:09:19.818Z,42.03
2022-12-15T09:11:49.313Z,42.03
2022-12-15T09:14:18.965Z,41.97
2022-12-15T09:16:50.729Z,42.03
2022-12-15T09:19:19.318Z,41.72
2022-12-15T09:21:48.414Z,41.62
2022-12-15T09:24:25.841Z,41.68
2022-12-15T09:27:01.238Z,41.19
2022-12-15T09:29:29.570Z,40.55
2022-12-15T09:31:57.968Z,39.99
2022-12-15T09:34:26.469Z,39.03
2022-12-15T09:36:54.757Z,38.45
2022-12-15T09:39:23.742Z,38.34
2022-12-15T09:41:55.505Z,38.22
2022-12-15T09:44:26.144Z,38.14
2022-12-15T09:47:17.708Z,40.32
2022-12-15T09:49:56.510Z,39.13
2022-12-15T09:52:27.921Z,40.18
2022-12-15T09:54:57.997Z,39.99
2022-12-15T09:57:43.016Z,39.57
2022-12-15T10:00:26.113Z,39.31
2022-12-15T10:03:28.299Z,38.15
2022-12-15T10:06:16.026Z,39.15
2022-12-15T10:09:02.102Z,38.08
2022-12-15T10:11:50.980Z,38.10
2022-12-15T10:14:42.346Z,38.31
2022-12-15T10:17:33.729Z,36.30
2022-12-15T10:20:17.471Z,34.34
2022-12-15T10:22:46.013Z,34.73
2022-12-15T10:29:08.242Z,36.94
2022-12-15T10:31:51.471Z,36.83
2022-12-15T10:34:29.755Z,38.22
2022-12-15T10:36:59.001Z,38.64
2022-12-15T10:39:41.435Z,39.69
2022-12-15T10:42:15.847Z,40.55
2022-12-15T10:44:50.273Z,39.72
2022-12-15T10:47:26.228Z,40.80
2022-12-15T10:49:56.566Z,41.67
2022-12-15T10:52:43.029Z,43.79
2022-12-15T10:55:38.835Z,45.08
2022-12-15T10:58:23.266Z,43.14
2022-12-15T11:01:15.309Z,43.38
2022-12-15T11:03:44.239Z,45.85
2022-12-15T11:06:20.479Z,45.20
2022-12-15T11:08:52.680Z,43.82
2022-12-15T11:11:53.795Z,43.47
2022-12-15T11:14:28.436Z,42.84
2022-12-15T11:16:59.402Z,43.45
2022-12-15T11:20:00.033Z,44.87
2022-12-15T11:23:03.166Z,43.96
2022-12-15T11:25:51.259Z,46.64
2022-12-15T11:28:38.901Z,44.92
2022-12-15T11:31:18.015Z,44.60
2022-12-15T11:33:46.413Z,44.31
2022-12-15T11:36:25.780Z,44.28
2022-12-15T11:39:03.048Z,43.85
2022-12-15T11:41:54.043Z,43.46
2022-12-15T11:44:32.634Z,43.62
2022-12-15T11:47:19.621Z,44.05
2022-12-15T11:50:29.704Z,44.00
2022-12-15T11:53:23.693Z,43.60
2022-12-15T11:56:19.265Z,43.09
2022-12-15T11:59:16.245Z,43.17
2022-12-15T12:02:02.943Z,42.57
2022-12-15T12:04:44.773Z,42.17
2022-12-15T12:07:43.924Z,42.84
2022-12-15T12:10:46.415Z,42.45
2022-12-15T12:13:46.645Z,42.30
2022-12-15T12:16:29.263Z,44.52
2022-12-15T12:19:03.064Z,43.86
2022-12-15T12:21:47.051Z,45.63
2022-12-15T12:24:30.441Z,44.79
2022-12-15T12:27:09.850Z,43.61
2022-12-15T12:29:44.798Z,42.79
2022-12-15T12:32:40.467Z,41.43
2022-12-15T12:35:56.678Z,40.86
2022-12-15T12:38:31.437Z,40.31
2022-12-15T12:41:27.402Z,38.02
2022-12-15T12:44:00.901Z,35.25
2022-12-15T12:46:34.425Z,37.33
2022-12-15T12:49:13.461Z,37.72
2022-12-15T12:51:49.375Z,37.25
2022-12-15T12:54:36.090Z,38.15
2022-12-15T12:57:13.449Z,37.71
2022-12-15T12:59:56.276Z,37.59
2022-12-15T13:02:24.949Z,38.29
2022-12-15T13:05:00.609Z,39.60
2022-12-15T13:07:31.162Z,39.51
2022-12-15T13:10:08.641Z,39.95
2022-12-15T13:12:54.753Z,40.48
2022-12-15T13:15:29.457Z,40.71
2022-12-15T13:18:07.175Z,41.17
2022-12-15T13:20:37.738Z,41.47
2022-12-15T13:23:21.510Z,41.86
2022-12-15T13:25:55.885Z,41.98
2022-12-15T13:28:36.128Z,42.38
2022-12-15T13:31:17.141Z,42.62
2022-12-15T13:33:52.363Z,43.00
2022-12-15T13:36:39.565Z,43.48
2022-12-15T13:39:17.168Z,43.59
2022-12-15T13:44:52.725Z,43.92
2022-12-15T13:47:28.007Z,44.40
2022-12-15T13:50:27.148Z,44.64
2022-12-15T13:53:18.383Z,44.80
2022-12-15T13:56:17.493Z,45.46
2022-12-15T13:58:57.841Z,45.43
2022-12-15T14:01:32.758Z,46.46
2022-12-15T14:04:15.867Z,47.19
2022-12-15T14:09:42.202Z,47.21
2022-12-15T14:12:13.824Z,47.81
2022-12-15T14:14:49.616Z,48.21
2022-12-15T14:17:19.841Z,48.62
2022-12-15T14:19:51.006Z,49.13
2022-12-15T14:22:30.619Z,49.46
2022-12-15T14:25:03.594Z,49.72
2022-12-15T14:27:33.938Z,50.29
2022-12-15T14:30:17.615Z,50.92
2022-12-15T14:32:49.329Z,50.95
2022-12-15T14:35:27.762Z,51.45
2022-12-15T14:37:58.377Z,51.69
2022-12-15T14:40:29.856Z,52.04
2022-12-15T14:42:58.563Z,52.44
2022-12-15T14:45:32.505Z,52.69
2022-12-15T14:48:39.473Z,53.04
2022-12-15T14:51:01.610Z,53.11
2022-12-15T14:53:37.462Z,53.43
2022-12-15T14:56:33.410Z,54.05
2022-12-15T14:59:20.875Z,54.21
2022-12-15T15:02:10.288Z,54.43
2022-12-15T15:03:06.627Z,37.64
2022-12-15T15:04:39.102Z,54.31
2022-12-15T15:07:17.476Z,55.05
2022-12-15T15:09:46.442Z,55.29
2022-12-15T15:12:20.633Z,55.71
2022-12-15T15:14:59.228Z,56.22
2022-12-15T15:17:39.185Z,56.73
2022-12-15T15:20:22.392Z,56.98
2022-12-15T15:23:10.980Z,57.63
2022-12-15T15:25:42.726Z,57.75
2022-12-15T15:28:21.770Z,58.07
2022-12-15T15:30:51.526Z,58.60
2022-12-15T15:33:26.247Z,58.83
2022-12-15T15:36:00.017Z,58.64
2022-12-15T15:38:37.961Z,59.21
2022-12-15T15:41:19.994Z,59.87
2022-12-15T15:43:49.583Z,59.71
2022-12-15T15:46:25.579Z,60.03
2022-12-15T15:48:57.688Z,60.01
2022-12-15T15:51:27.450Z,60.31
2022-12-15T15:54:01.288Z,60.53
2022-12-15T15:56:31.270Z,61.43
2022-12-15T15:59:09.488Z,61.11
2022-12-15T16:01:37.848Z,60.95
2022-12-15T16:04:06.914Z,63.65
2022-12-15T16:06:35.930Z,66.28
2022-12-15T16:09:07.143Z,63.94
2022-12-15T16:11:36.594Z,62.03
2022-12-15T16:14:11.276Z,58.52
2022-12-15T16:16:41.923Z,54.22
2022-12-15T16:19:12.205Z,52.91
2022-12-15T16:21:43.054Z,53.16
2022-12-15T16:24:17.713Z,53.50
2022-12-15T16:26:49.725Z,54.33
2022-12-15T16:29:20.528Z,54.95
2022-12-15T16:31:49.223Z,55.48
2022-12-15T16:34:19.307Z,56.47
2022-12-15T16:36:47.888Z,56.66
2022-12-15T16:39:31.278Z,57.24
2022-12-15T16:41:59.711Z,57.95
2022-12-15T16:44:29.563Z,58.80
2022-12-15T16:46:59.121Z,59.22
2022-12-15T16:49:33.911Z,59.65
2022-12-15T16:52:15.172Z,63.50
2022-12-15T16:54:46.805Z,63.72
2022-12-15T16:57:15.530Z,60.10
2022-12-15T16:59:43.796Z,57.97
2022-12-15T17:02:28.645Z,54.47
2022-12-15T17:04:57.515Z,52.59
2022-12-15T17:07:27.859Z,48.73
2022-12-15T17:09:56.941Z,49.36
2022-12-15T17:12:25.360Z,48.66
2022-12-15T17:14:53.657Z,48.16
2022-12-15T17:17:22.020Z,46.48
2022-12-15T17:20:27.945Z,47.53
2022-12-15T17:22:40.418Z,45.95
2022-12-15T17:25:32.062Z,45.13
2022-12-15T17:28:21.040Z,44.68
2022-12-15T17:30:51.707Z,46.60
2022-12-15T17:33:22.673Z,42.76
2022-12-15T17:36:01.544Z,42.03
2022-12-15T17:38:30.132Z,42.63
2022-12-15T17:40:58.448Z,43.38
2022-12-15T17:43:32.058Z,43.94
2022-12-15T17:46:04.154Z,44.33
2022-12-15T17:48:33.042Z,44.36
2022-12-15T17:51:01.316Z,46.22
2022-12-15T17:53:31.000Z,46.19
2022-12-15T17:55:59.511Z,46.84
2022-12-15T17:58:27.811Z,47.70
2022-12-15T18:00:56.534Z,47.97
2022-12-15T18:03:25.085Z,48.14
2022-12-15T18:05:53.845Z,49.30
2022-12-15T18:08:25.651Z,49.07
2022-12-15T18:10:58.095Z,48.93
2022-12-15T18:13:34.884Z,49.17
2022-12-15T18:16:04.053Z,49.94
2022-12-15T18:18:32.673Z,50.37
2022-12-15T18:21:08.142Z,49.07
2022-12-15T18:23:37.370Z,49.74
2022-12-15T18:26:05.930Z,49.62
2022-12-15T18:28:35.706Z,49.80
2022-12-15T18:31:14.986Z,50.58
2022-12-15T18:33:44.611Z,50.04
2022-12-15T18:36:13.719Z,49.91
2022-12-15T18:38:42.577Z,49.85
2022-12-15T18:41:17.332Z,50.21
2022-12-15T18:43:47.813Z,50.80
2022-12-15T18:46:18.907Z,51.50
2022-12-15T18:48:47.450Z,50.91
2022-12-15T18:51:18.917Z,50.97
2022-12-15T18:53:51.154Z,51.38
2022-12-15T18:56:21.769Z,51.19
2022-12-15T18:58:50.088Z,50.12
2022-12-15T19:01:18.713Z,51.46
2022-12-15T19:03:47.361Z,50.93
2022-12-15T19:06:35.025Z,50.17
2022-12-15T19:09:06.377Z,50.85
2022-12-15T19:11:34.775Z,51.50
2022-12-15T19:14:24.998Z,51.26
2022-12-15T19:17:12.610Z,50.18
2022-12-15T19:19:59.506Z,51.14
2022-12-15T19:22:29.679Z,50.90
2022-12-15T19:24:59.168Z,51.46
2022-12-15T19:27:27.650Z,50.80
2022-12-15T19:29:55.997Z,51.45
2022-12-15T19:32:24.444Z,52.37
2022-12-15T19:34:52.698Z,51.73
2022-12-15T19:37:30.212Z,51.58
2022-12-15T19:40:01.096Z,51.48
2022-12-15T19:43:39.589Z,51.70
2022-12-15T19:46:17.382Z,52.06
2022-12-15T19:48:46.362Z,52.00
2022-12-15T19:51:21.159Z,53.31
2022-12-15T19:53:49.891Z,52.55
2022-12-15T19:56:21.991Z,52.80
2022-12-15T19:58:50.546Z,52.94
2022-12-15T20:01:21.344Z,51.82
2022-12-15T20:03:52.892Z,52.92
2022-12-15T20:06:24.725Z,53.54
2022-12-15T20:08:55.969Z,52.87
2022-12-15T20:11:30.340Z,53.49
2022-12-15T20:13:59.060Z,53.18
2022-12-15T20:16:27.431Z,54.22
2022-12-15T20:18:56.250Z,53.96
2022-12-15T20:21:31.590Z,53.40
2022-12-15T20:24:15.140Z,53.34
2022-12-15T20:26:45.776Z,53.35
2022-12-15T20:29:28.368Z,53.08
2022-12-15T20:31:57.607Z,53.46
2022-12-15T20:34:26.264Z,53.47
2022-12-15T20:36:54.512Z,52.75
2022-12-15T20:39:26.955Z,53.26
2022-12-15T20:41:56.568Z,54.08
2022-12-15T20:44:24.891Z,54.42
2022-12-15T20:46:53.679Z,54.28
2022-12-15T20:49:22.784Z,53.67
2022-12-15T20:51:51.872Z,52.95
2022-12-15T20:54:22.529Z,53.69
2022-12-15T20:56:51.028Z,54.31
2022-12-15T20:59:19.509Z,53.83
2022-12-15T21:01:48.209Z,53.85
2022-12-15T21:04:25.032Z,54.93
2022-12-15T21:06:55.178Z,54.76
2022-12-15T21:09:24.636Z,54.59
2022-12-15T21:11:55.144Z,54.79
2022-12-15T21:14:24.658Z,54.85
2022-12-15T21:16:53.028Z,53.86
2022-12-15T21:19:22.568Z,54.33
2022-12-15T21:21:54.780Z,54.38
2022-12-15T21:24:27.047Z,54.46
2022-12-15T21:26:56.228Z,53.54
2022-12-15T21:29:28.764Z,53.62
2022-12-15T21:31:57.537Z,54.27
2022-12-15T21:34:25.872Z,54.68
2022-12-15T21:36:54.994Z,54.60
2022-12-15T21:39:31.090Z,54.57
2022-12-15T21:42:01.893Z,54.60
2022-12-15T21:44:30.299Z,54.50
2022-12-15T21:46:58.606Z,53.96
2022-12-15T21:49:27.265Z,54.46
2022-12-15T21:52:01.139Z,54.33
2022-12-15T21:54:35.187Z,54.21
2022-12-15T21:57:03.881Z,54.41
2022-12-15T21:59:32.986Z,54.43
2022-12-15T22:02:01.841Z,54.65
2022-12-15T22:04:33.603Z,53.98
2022-12-15T22:07:02.424Z,53.54
2022-12-15T22:09:30.666Z,53.70
2022-12-15T22:11:59.343Z,53.69
2022-12-15T22:14:33.871Z,54.20
2022-12-15T22:17:14.448Z,54.73
2022-12-15T22:19:42.750Z,54.72
2022-12-15T22:22:12.391Z,54.64
2022-12-15T22:24:41.000Z,54.19
2022-12-15T22:27:21.243Z,54.13
2022-12-15T22:29:50.484Z,54.27
2022-12-15T22:32:18.728Z,54.25
2022-12-15T22:34:47.157Z,54.06
2022-12-15T22:37:15.871Z,53.86
2022-12-15T22:39:44.192Z,53.64
2022-12-15T22:42:16.757Z,53.45
2022-12-15T22:44:45.850Z,53.03
2022-12-15T22:47:14.164Z,51.80
2022-12-15T22:49:42.699Z,52.04
2022-12-15T22:52:19.783Z,52.45
2022-12-15T22:54:48.598Z,52.10
2022-12-15T22:57:21.603Z,51.96
2022-12-15T23:00:05.764Z,52.23
2022-12-15T23:02:40.825Z,51.97
2022-12-15T23:05:12.058Z,51.69
2022-12-15T23:07:41.509Z,51.48
2022-12-15T23:10:31.207Z,51.57
2022-12-15T23:12:59.676Z,51.50
2022-12-15T23:15:47.726Z,51.40
2022-12-15T23:18:16.388Z,51.36
2022-12-15T23:20:44.602Z,50.96
2022-12-15T23:23:12.825Z,50.98
2022-12-15T23:25:41.234Z,51.05
2022-12-15T23:28:09.717Z,51.16
2022-12-15T23:30:38.112Z,51.12
2022-12-15T23:33:06.433Z,50.90
2022-12-15T23:35:35.772Z,50.93
2022-12-15T23:38:03.986Z,51.18
2022-12-15T23:40:32.313Z,51.19
2022-12-15T23:43:00.795Z,51.13
2022-12-15T23:45:29.267Z,51.29
2022-12-15T23:47:57.518Z,51.73
2022-12-15T23:50:25.737Z,51.69
2022-12-15T23:52:54.030Z,52.27
2022-12-15T23:55:23.114Z,52.25
2022-12-15T23:57:51.844Z,51.94
